Tetide — IVTN — position and weather

sailwx.info

Track history (hours):
 
Tides and Currents Weather Stations Pressure Air Temp Water Temp Dewpoint Dewpoint Depression Visibility Wind Speed Wind Dir Waves Ship Positions

Tetide

Last reported at 2016-Sep-05 06:17 UTC. Time now 2016-Sep-29 01:43 UTC.
Position N 41°13' E 013°36'.
Warning: this ship's position is 23 days out of date.

Length 70 m; draft 3.6 m.

Type: Passenger vessel. MMSI: 247043100.

Date/timePositionNaut miles runAvg speedWind from/ knotsBaromVisibWave heightAir tempDewpointWater temp
2016-Sep-05 06:17N 41°13' E 013°36'2 1.2
2016-Sep-05 04:34N 41°15' E 013°37'0 0.0
2016-Sep-05 03:34N 41°15' E 013°37'0 0.0
2016-Sep-05 01:33N 41°15' E 013°37'0 0.0
2016-Sep-05 00:08N 41°15' E 013°37'0 0.0
2016-Sep-04 23:33N 41°15' E 013°37'0 0.0
2016-Sep-04 22:22N 41°15' E 013°37'0 0.0
2016-Sep-04 21:33N 41°15' E 013°37'0 0.0
2016-Sep-04 18:33N 41°15' E 013°37'0 0.1
2016-Sep-04 17:34N 41°15' E 013°37'27 8.5
2016-Sep-04 14:19N 40°49' E 013°26'1114.3
2016-Sep-04 13:34N 40°59' E 013°31'1514.3
2016-Sep-04 12:32N 41°13' E 013°36'3 2.7
2016-Sep-04 11:34N 41°11' E 013°34'  
2016-Aug-31 02:15N 41°15' E 013°37'0 0.0
2016-Aug-31 01:18N 41°15' E 013°37'0 0.0
2016-Aug-30 22:25N 41°15' E 013°37'0 0.0
2016-Aug-30 21:33N 41°15' E 013°37'0 0.0
2016-Aug-30 20:17N 41°15' E 013°37'0 0.0
2016-Aug-30 19:26N 41°15' E 013°37'0 0.0
2016-Aug-30 18:33N 41°15' E 013°37'1110.7
2016-Aug-30 17:33N 41°08' E 013°27'4 0.9
2016-Aug-30 13:04N 41°10' E 013°31'713.4
2016-Aug-30 12:33N 41°15' E 013°37'4 4.4
2016-Aug-30 11:33N 41°11' E 013°34'4 0.4
2016-Aug-30 00:33N 41°15' E 013°37'0 0.0
2016-Aug-29 23:31N 41°15' E 013°37'0 0.0
2016-Aug-29 21:33N 41°15' E 013°37'0 0.0
2016-Aug-29 20:32N 41°15' E 013°37'0 0.0
2016-Aug-29 18:28N 41°15' E 013°37'3 2.3
2016-Aug-29 17:21N 41°13' E 013°37'13 3.5
2016-Aug-29 13:31N 41°00' E 013°31'1414.5
2016-Aug-29 12:33N 41°13' E 013°37'26 1.2
2016-Aug-28 14:19N 40°49' E 013°26'1114.6
2016-Aug-28 13:33N 40°59' E 013°31'1414.4
2016-Aug-28 12:33N 41°13' E 013°36'2 1.6
2016-Aug-28 11:33N 41°12' E 013°35'4 0.2
2016-Aug-27 19:04N 41°15' E 013°37'0 0.0
2016-Aug-27 18:33N 41°15' E 013°37'0 0.3
2016-Aug-27 17:32N 41°15' E 013°37'2014.4
2016-Aug-27 16:09N 40°56' E 013°29'4 1.7
2016-Aug-27 13:33N 41°00' E 013°31'16 1.6
2016-Aug-27 03:33N 41°15' E 013°37'0 0.0
2016-Aug-27 02:33N 41°15' E 013°37'0 0.0
2016-Aug-26 23:30N 41°15' E 013°37'0 0.0
2016-Aug-26 21:32N 41°15' E 013°37'0 0.0
2016-Aug-26 20:33N 41°15' E 013°37'0 0.0
2016-Aug-26 19:33N 41°15' E 013°37'8 6.6
2016-Aug-26 18:24N 41°09' E 013°31'  
Track history (hours):
 
Tides and Currents Weather Stations Pressure Air Temp Water Temp Dewpoint Dewpoint Depression Visibility Wind Speed Wind Dir Waves Ship Positions

Tetide

Last reported at 2016-Sep-05 06:17 UTC. Time now 2016-Sep-29 01:43 UTC.
Position N 41°13' E 013°36'.
Warning: this ship's position is 23 days out of date.

Length 70 m; draft 3.6 m.

Type: Passenger vessel. MMSI: 247043100.

Date/timePositionNaut miles runAvg speedWind from/ knotsBaromVisibWave heightAir tempDewpointWater temp
2016-Sep-05 06:17N 41°13' E 013°36'2 1.2
2016-Sep-05 04:34N 41°15' E 013°37'0 0.0
2016-Sep-05 03:34N 41°15' E 013°37'0 0.0
2016-Sep-05 01:33N 41°15' E 013°37'0 0.0
2016-Sep-05 00:08N 41°15' E 013°37'0 0.0
2016-Sep-04 23:33N 41°15' E 013°37'0 0.0
2016-Sep-04 22:22N 41°15' E 013°37'0 0.0
2016-Sep-04 21:33N 41°15' E 013°37'0 0.0
2016-Sep-04 18:33N 41°15' E 013°37'0 0.1
2016-Sep-04 17:34N 41°15' E 013°37'27 8.5
2016-Sep-04 14:19N 40°49' E 013°26'1114.3
2016-Sep-04 13:34N 40°59' E 013°31'1514.3
2016-Sep-04 12:32N 41°13' E 013°36'3 2.7
2016-Sep-04 11:34N 41°11' E 013°34'  
2016-Aug-31 02:15N 41°15' E 013°37'0 0.0
2016-Aug-31 01:18N 41°15' E 013°37'0 0.0
2016-Aug-30 22:25N 41°15' E 013°37'0 0.0
2016-Aug-30 21:33N 41°15' E 013°37'0 0.0
2016-Aug-30 20:17N 41°15' E 013°37'0 0.0
2016-Aug-30 19:26N 41°15' E 013°37'0 0.0
2016-Aug-30 18:33N 41°15' E 013°37'1110.7
2016-Aug-30 17:33N 41°08' E 013°27'4 0.9
2016-Aug-30 13:04N 41°10' E 013°31'713.4
2016-Aug-30 12:33N 41°15' E 013°37'4 4.4
2016-Aug-30 11:33N 41°11' E 013°34'4 0.4
2016-Aug-30 00:33N 41°15' E 013°37'0 0.0
2016-Aug-29 23:31N 41°15' E 013°37'0 0.0
2016-Aug-29 21:33N 41°15' E 013°37'0 0.0
2016-Aug-29 20:32N 41°15' E 013°37'0 0.0
2016-Aug-29 18:28N 41°15' E 013°37'3 2.3
2016-Aug-29 17:21N 41°13' E 013°37'13 3.5
2016-Aug-29 13:31N 41°00' E 013°31'1414.5
2016-Aug-29 12:33N 41°13' E 013°37'26 1.2
2016-Aug-28 14:19N 40°49' E 013°26'1114.6
2016-Aug-28 13:33N 40°59' E 013°31'1414.4
2016-Aug-28 12:33N 41°13' E 013°36'2 1.6
2016-Aug-28 11:33N 41°12' E 013°35'4 0.2
2016-Aug-27 19:04N 41°15' E 013°37'0 0.0
2016-Aug-27 18:33N 41°15' E 013°37'0 0.3
2016-Aug-27 17:32N 41°15' E 013°37'2014.4
2016-Aug-27 16:09N 40°56' E 013°29'4 1.7
2016-Aug-27 13:33N 41°00' E 013°31'16 1.6
2016-Aug-27 03:33N 41°15' E 013°37'0 0.0
2016-Aug-27 02:33N 41°15' E 013°37'0 0.0
2016-Aug-26 23:30N 41°15' E 013°37'0 0.0
2016-Aug-26 21:32N 41°15' E 013°37'0 0.0
2016-Aug-26 20:33N 41°15' E 013°37'0 0.0
2016-Aug-26 19:33N 41°15' E 013°37'8 6.6
2016-Aug-26 18:24N 41°09' E 013°31'  

Dump ship's entire track history